Time;durP1;ratioP1;P1;durP2;ratioP2;P2;SDS_P1;SDS_P2;PMS_P1;PMS_P2;Temp;Humidity;BMP_temperature;BMP_pressure;BME280_temperature;BME280_humidity;BME280_pressure;Samples;Min_cycle;Max_cycle;Signal;HPM_P1;HPM_P2
2024/01/29 00:01:24;;;;;;;579.13;525.47;;;27.10;99.90;;;;;;5074451;28;20024;-68
2024/01/29 00:03:50;;;;;;;571.00;519.67;;;27.10;99.90;;;;;;5074462;28;20032;-67
2024/01/29 00:06:17;;;;;;;560.38;508.98;;;27.20;99.90;;;;;;5074421;28;20438;-67
2024/01/29 00:08:43;;;;;;;539.47;491.00;;;27.20;99.90;;;;;;5056319;28;20377;-66
2024/01/29 00:11:11;;;;;;;506.63;461.73;;;27.20;99.90;;;;;;5074368;28;20031;-67
2024/01/29 00:13:37;;;;;;;544.28;496.13;;;27.20;99.90;;;;;;5074137;28;20388;-67
2024/01/29 00:16:05;;;;;;;543.22;493.60;;;27.20;99.90;;;;;;5074162;28;20086;-68
2024/01/29 00:18:31;;;;;;;446.42;406.38;;;27.20;99.90;;;;;;5074119;28;20020;-67
2024/01/29 00:20:58;;;;;;;547.63;498.25;;;27.20;99.90;;;;;;5074178;28;20109;-67
2024/01/29 00:23:25;;;;;;;526.17;479.58;;;27.30;99.90;;;;;;5074154;28;20530;-67
2024/01/29 00:25:51;;;;;;;537.78;488.42;;;27.30;99.90;;;;;;5073901;28;20116;-67
2024/01/29 00:28:18;;;;;;;532.70;485.70;;;27.30;99.90;;;;;;5074125;28;20021;-67
2024/01/29 00:30:44;;;;;;;441.35;401.65;;;27.40;99.90;;;;;;5074214;28;20028;-66
2024/01/29 00:33:11;;;;;;;322.65;294.88;;;27.40;99.90;;;;;;5073765;28;20022;-67
2024/01/29 00:35:37;;;;;;;487.30;443.70;;;27.40;99.90;;;;;;5074138;28;20059;-66
2024/01/29 00:38:05;;;;;;;433.60;395.48;;;27.40;99.90;;;;;;5073858;28;20016;-67
2024/01/29 00:40:33;;;;;;;417.45;380.98;;;27.40;99.90;;;;;;5073505;28;20424;-67
2024/01/29 00:43:01;;;;;;;357.35;325.30;;;27.50;99.90;;;;;;5073706;28;20534;-67
2024/01/29 00:45:27;;;;;;;372.45;338.83;;;27.50;99.90;;;;;;5073650;28;20040;-67
2024/01/29 00:47:54;;;;;;;405.77;370.00;;;27.50;99.90;;;;;;5073740;28;20107;-67
2024/01/29 00:50:20;;;;;;;358.83;326.90;;;27.50;99.90;;;;;;5073937;28;20031;-67
2024/01/29 00:52:47;;;;;;;427.05;388.85;;;27.60;99.90;;;;;;5073530;28;20506;-66
2024/01/29 00:55:14;;;;;;;384.08;349.33;;;27.70;99.90;;;;;;5072606;28;20048;-66
2024/01/29 00:57:40;;;;;;;390.42;355.05;;;27.70;99.90;;;;;;5073595;28;20023;-66
2024/01/29 01:00:08;;;;;;;324.35;294.98;;;27.70;99.90;;;;;;5073525;28;20017;-66
2024/01/29 01:02:35;;;;;;;280.30;255.40;;;27.70;99.90;;;;;;5073251;28;20107;-67
2024/01/29 01:05:02;;;;;;;331.00;299.50;;;27.80;99.90;;;;;;5073518;28;20036;-67
2024/01/29 01:07:29;;;;;;;316.17;288.15;;;27.80;99.90;;;;;;5073329;28;20036;-67
2024/01/29 01:09:55;;;;;;;283.73;260.10;;;27.90;99.90;;;;;;5073193;28;20085;-66
2024/01/29 01:12:22;;;;;;;310.65;283.80;;;27.90;99.90;;;;;;5073475;28;20518;-67
2024/01/29 01:14:51;;;;;;;304.92;279.73;;;27.90;99.90;;;;;;5073173;28;20053;-66
2024/01/29 01:17:18;;;;;;;297.92;273.25;;;27.90;99.90;;;;;;5073238;28;20508;-66
2024/01/29 01:19:44;;;;;;;262.58;242.02;;;28.10;99.90;;;;;;5073225;28;20059;-67
2024/01/29 01:22:12;;;;;;;327.70;299.33;;;28.10;99.90;;;;;;5073287;28;20450;-67
2024/01/29 01:24:38;;;;;;;264.77;243.85;;;28.20;99.90;;;;;;5073000;28;20052;-67
2024/01/29 01:27:05;;;;;;;267.77;246.85;;;28.10;99.90;;;;;;5073458;28;20025;-67
2024/01/29 01:29:31;;;;;;;312.83;287.58;;;28.20;99.90;;;;;;5073035;28;20473;-66
2024/01/29 01:31:58;;;;;;;248.02;229.10;;;28.20;99.90;;;;;;5065814;28;20059;-66
2024/01/29 01:34:24;;;;;;;236.18;219.07;;;28.20;99.90;;;;;;5072961;28;20025;-66
2024/01/29 01:36:51;;;;;;;204.07;189.60;;;28.20;99.90;;;;;;5072880;28;20017;-66
2024/01/29 01:39:17;;;;;;;223.10;205.98;;;28.30;99.90;;;;;;5070092;28;20040;-68
2024/01/29 01:41:50;;;;;;;227.07;207.27;;;28.30;99.90;;;;;;5072815;28;20043;-66
2024/01/29 01:44:17;;;;;;;231.45;211.65;;;28.40;99.90;;;;;;5073529;28;20024;-67
2024/01/29 01:46:43;;;;;;;204.10;186.48;;;28.40;99.90;;;;;;5073010;28;20025;-67
2024/01/29 01:49:10;;;;;;;233.02;211.73;;;28.50;99.90;;;;;;5073001;28;20481;-67
2024/01/29 01:51:37;;;;;;;224.43;206.90;;;28.50;99.90;;;;;;5073134;28;20504;-67
2024/01/29 01:54:07;;;;;;;190.70;176.65;;;28.50;99.90;;;;;;5072783;28;20386;-67
2024/01/29 01:56:35;;;;;;;164.20;151.90;;;28.50;99.90;;;;;;5073150;28;20027;-66
2024/01/29 01:59:07;;;;;;;187.00;172.57;;;28.40;99.90;;;;;;5072973;28;20020;-66
2024/01/29 02:01:33;;;;;;;249.55;228.68;;;28.40;99.90;;;;;;5072709;28;20028;-66
2024/01/29 02:04:00;;;;;;;200.63;182.38;;;28.50;99.90;;;;;;5072810;28;20436;-66
2024/01/29 02:06:27;;;;;;;221.88;203.85;;;28.50;99.90;;;;;;5075823;28;20020;-67
2024/01/29 02:08:54;;;;;;;194.60;177.95;;;28.60;99.90;;;;;;5076889;28;20385;-67
2024/01/29 02:11:21;;;;;;;190.05;174.57;;;28.60;99.90;;;;;;5076605;28;20017;-67
2024/01/29 02:13:47;;;;;;;169.70;156.52;;;28.60;99.90;;;;;;5076588;28;20046;-67
2024/01/29 02:16:14;;;;;;;180.85;166.73;;;28.70;99.90;;;;;;5064491;28;20372;-66
2024/01/29 02:18:41;;;;;;;179.23;165.75;;;28.70;99.90;;;;;;5056547;28;20021;-67
2024/01/29 02:21:08;;;;;;;212.95;196.70;;;28.70;99.90;;;;;;5056945;28;20105;-67
2024/01/29 02:23:34;;;;;;;155.18;141.98;;;28.70;99.90;;;;;;5056441;28;20361;-67
2024/01/29 02:26:01;;;;;;;202.13;186.98;;;28.80;99.90;;;;;;5056722;28;20029;-69
2024/01/29 02:28:27;;;;;;;194.55;178.35;;;28.80;99.90;;;;;;5069770;28;20079;-67
2024/01/29 02:30:54;;;;;;;137.38;126.40;;;28.80;99.90;;;;;;5076217;28;20033;-67
2024/01/29 02:33:21;;;;;;;146.63;135.20;;;28.80;99.90;;;;;;5076270;28;20028;-68
2024/01/29 02:35:47;;;;;;;145.60;134.55;;;28.80;99.90;;;;;;5069099;28;20489;-68
2024/01/29 02:38:14;;;;;;;111.60;102.25;;;28.90;99.90;;;;;;5056086;28;20032;-68
2024/01/29 02:40:41;;;;;;;92.65;84.72;;;29.00;99.90;;;;;;5056330;28;20035;-68
2024/01/29 02:43:07;;;;;;;77.65;70.82;;;29.10;99.90;;;;;;5056510;28;20035;-65
2024/01/29 02:45:34;;;;;;;102.88;94.05;;;29.20;99.90;;;;;;5055859;28;20100;-65
2024/01/29 02:48:00;;;;;;;87.38;79.30;;;29.20;99.90;;;;;;5056105;28;20111;-64
2024/01/29 02:50:29;;;;;;;87.15;79.70;;;29.30;99.90;;;;;;5057076;28;20025;-64
2024/01/29 02:52:56;;;;;;;102.25;93.43;;;29.20;99.90;;;;;;5076014;28;20082;-63
2024/01/29 02:55:22;;;;;;;98.07;89.93;;;29.20;99.90;;;;;;5067224;28;20409;-64
2024/01/29 02:57:48;;;;;;;86.65;78.00;;;29.20;99.90;;;;;;5055992;28;20052;-64
2024/01/29 03:00:15;;;;;;;100.03;91.07;;;29.10;99.90;;;;;;5055904;28;20517;-63
2024/01/29 03:02:42;;;;;;;100.45;91.47;;;29.10;99.90;;;;;;5056011;28;20029;-64
2024/01/29 03:05:09;;;;;;;109.40;100.22;;;29.10;99.90;;;;;;5056498;28;20083;-67
2024/01/29 03:07:36;;;;;;;84.30;76.90;;;29.20;99.90;;;;;;5055920;28;20032;-68
2024/01/29 03:10:02;;;;;;;72.93;66.22;;;29.30;99.90;;;;;;5056434;28;20036;-68
2024/01/29 03:12:29;;;;;;;74.30;67.03;;;29.40;99.90;;;;;;5055720;28;20021;-67
2024/01/29 03:14:55;;;;;;;81.15;73.78;;;29.60;99.90;;;;;;5055999;28;20036;-68
2024/01/29 03:17:22;;;;;;;73.45;67.45;;;29.70;99.90;;;;;;5055326;28;20382;-67
2024/01/29 03:19:48;;;;;;;79.47;71.93;;;29.80;99.90;;;;;;5056011;28;20017;-68
2024/01/29 03:22:15;;;;;;;85.72;78.95;;;29.80;99.90;;;;;;5055906;28;20436;-68
2024/01/29 03:24:41;;;;;;;81.32;75.18;;;29.70;99.90;;;;;;5056038;28;20469;-67
2024/01/29 03:27:08;;;;;;;75.20;68.35;;;29.70;99.90;;;;;;5056469;28;20040;-67
2024/01/29 03:29:34;;;;;;;80.60;73.28;;;29.70;99.90;;;;;;5056404;28;20036;-67
2024/01/29 03:32:01;;;;;;;85.18;77.43;;;29.70;99.90;;;;;;5068130;28;20358;-66
2024/01/29 03:34:27;;;;;;;77.82;70.82;;;29.90;99.90;;;;;;5064363;28;20033;-67
2024/01/29 03:36:54;;;;;;;104.32;96.03;;;30.00;99.90;;;;;;5057506;28;20017;-67
2024/01/29 03:39:20;;;;;;;123.57;113.90;;;30.10;99.90;;;;;;5075256;28;20036;-66
2024/01/29 03:41:47;;;;;;;201.73;187.15;;;30.20;99.90;;;;;;5071763;28;20446;-67
2024/01/29 03:44:15;;;;;;;102.15;93.93;;;30.30;99.90;;;;;;5065782;28;20025;-67
2024/01/29 03:46:42;;;;;;;83.93;76.75;;;30.40;99.90;;;;;;5055751;28;20466;-67
2024/01/29 03:49:09;;;;;;;86.28;79.13;;;30.40;99.90;;;;;;5056602;28;20487;-67
2024/01/29 03:51:35;;;;;;;89.95;82.88;;;30.40;99.90;;;;;;5075786;28;20103;-67
2024/01/29 03:54:02;;;;;;;100.40;92.57;;;30.50;99.90;;;;;;5075205;28;20039;-67
2024/01/29 03:56:28;;;;;;;118.60;109.13;;;30.50;99.90;;;;;;5057256;28;20066;-68
2024/01/29 03:58:55;;;;;;;146.07;135.38;;;30.50;99.90;;;;;;5075062;28;20028;-66
2024/01/29 04:01:30;;;;;;;170.18;158.27;;;30.60;99.90;;;;;;5074915;28;20025;-67
2024/01/29 04:03:57;;;;;;;153.40;143.02;;;30.70;99.90;;;;;;5055598;28;20080;-66
2024/01/29 04:06:23;;;;;;;134.30;124.40;;;30.70;99.90;;;;;;5079173;23;20059;-66
2024/01/29 04:08:50;;;;;;;134.13;124.57;;;30.70;99.90;;;;;;5075429;28;20028;-67
2024/01/29 04:11:16;;;;;;;129.38;120.50;;;30.80;99.90;;;;;;5075410;28;20086;-67
2024/01/29 04:13:43;;;;;;;135.82;126.28;;;30.80;99.90;;;;;;5074896;28;20021;-66
2024/01/29 04:16:11;;;;;;;118.13;109.47;;;30.80;99.90;;;;;;5074495;28;20115;-68
2024/01/29 04:18:39;;;;;;;114.95;106.35;;;30.90;99.90;;;;;;5074527;28;20032;-67
2024/01/29 04:21:06;;;;;;;114.53;106.35;;;30.90;99.90;;;;;;5070567;28;20469;-65
2024/01/29 04:23:35;;;;;;;116.55;107.75;;;30.90;99.90;;;;;;5063772;28;20032;-68
2024/01/29 04:26:02;;;;;;;116.30;107.53;;;30.80;99.90;;;;;;5062766;28;20505;-68
2024/01/29 04:28:29;;;;;;;120.22;111.90;;;30.90;99.90;;;;;;5062097;28;20029;-67
2024/01/29 04:30:55;;;;;;;113.10;104.97;;;30.90;99.90;;;;;;5066839;28;20032;-68
2024/01/29 04:33:22;;;;;;;108.22;100.32;;;30.90;99.90;;;;;;5047596;28;20025;-65
2024/01/29 04:35:48;;;;;;;92.07;84.65;;;31.00;99.90;;;;;;5039303;28;20029;-68
2024/01/29 04:38:15;;;;;;;106.95;98.70;;;31.00;99.90;;;;;;5034163;28;20382;-65
2024/01/29 04:40:42;;;;;;;106.93;97.88;;;31.10;99.90;;;;;;5034331;28;20019;-66
2024/01/29 04:43:09;;;;;;;106.05;98.07;;;31.20;99.90;;;;;;5034029;28;20101;-66
2024/01/29 04:45:35;;;;;;;104.47;96.30;;;31.20;99.90;;;;;;5033703;28;20022;-66
2024/01/29 04:48:02;;;;;;;95.13;87.78;;;31.20;99.90;;;;;;5034071;28;20490;-67
2024/01/29 04:50:28;;;;;;;88.93;82.50;;;31.30;99.90;;;;;;5033871;28;20034;-67
2024/01/29 04:52:55;;;;;;;96.60;89.03;;;31.30;99.90;;;;;;5033538;28;20029;-67
2024/01/29 04:55:22;;;;;;;86.45;79.47;;;31.30;99.90;;;;;;5033786;28;20022;-67
2024/01/29 04:57:48;;;;;;;92.88;86.03;;;31.40;99.90;;;;;;5033665;28;20382;-67
2024/01/29 05:00:15;;;;;;;84.50;77.85;;;31.40;99.90;;;;;;5033687;28;20052;-67
2024/01/29 05:02:42;;;;;;;92.93;85.85;;;31.40;99.90;;;;;;5033524;28;20404;-67
2024/01/29 05:05:08;;;;;;;95.10;87.90;;;31.40;99.90;;;;;;5033609;28;20113;-67
2024/01/29 05:07:35;;;;;;;99.53;91.75;;;31.40;99.90;;;;;;5033248;28;20077;-66
2024/01/29 05:10:02;;;;;;;81.72;75.43;;;31.40;99.90;;;;;;5033717;28;20397;-68
2024/01/29 05:12:28;;;;;;;99.43;91.63;;;31.40;99.90;;;;;;5033488;28;20037;-67
2024/01/29 05:14:55;;;;;;;89.65;82.65;;;31.40;99.90;;;;;;5033367;28;20085;-68
2024/01/29 05:17:21;;;;;;;94.60;87.65;;;31.60;99.90;;;;;;5033405;28;20022;-67
2024/01/29 05:19:48;;;;;;;85.35;79.10;;;31.60;99.90;;;;;;5033508;28;20425;-66
2024/01/29 05:22:15;;;;;;;73.75;68.20;;;31.50;99.90;;;;;;5051528;28;20496;-68
2024/01/29 05:24:41;;;;;;;70.40;64.85;;;31.40;99.90;;;;;;5053139;28;20049;-68
2024/01/29 05:27:08;;;;;;;72.75;66.75;;;31.40;99.90;;;;;;5053609;28;20028;-67
2024/01/29 05:29:34;;;;;;;74.72;68.75;;;31.20;99.90;;;;;;5053388;28;20477;-67
2024/01/29 05:32:01;;;;;;;94.05;86.18;;;31.20;99.90;;;;;;5040191;28;20037;-68
2024/01/29 05:34:27;;;;;;;101.85;94.28;;;31.00;99.90;;;;;;5044555;28;20013;-67
2024/01/29 05:36:54;;;;;;;93.82;86.75;;;31.00;99.90;;;;;;5053084;28;20025;-69
2024/01/29 05:39:20;;;;;;;111.35;102.82;;;30.80;99.90;;;;;;5053371;28;20018;-68
2024/01/29 05:41:47;;;;;;;105.40;97.30;;;30.80;99.90;;;;;;5047143;28;20052;-66
2024/01/29 05:44:13;;;;;;;99.72;92.00;;;30.80;99.90;;;;;;5048053;28;20422;-67
2024/01/29 05:46:40;;;;;;;104.15;96.45;;;30.90;99.90;;;;;;5051574;28;20052;-67
2024/01/29 05:49:06;;;;;;;104.53;96.38;;;31.00;99.90;;;;;;5045117;28;20080;-66
2024/01/29 05:51:33;;;;;;;102.65;94.80;;;31.20;99.90;;;;;;5037024;28;20025;-67
2024/01/29 05:54:00;;;;;;;93.90;86.68;;;31.30;99.90;;;;;;5037026;28;20025;-67
2024/01/29 05:56:26;;;;;;;81.82;76.07;;;31.40;99.90;;;;;;5036992;28;20562;-66
2024/01/29 05:58:53;;;;;;;83.47;77.38;;;31.60;99.90;;;;;;5037183;28;20026;-67
2024/01/29 06:01:19;;;;;;;72.47;67.13;;;31.60;99.90;;;;;;5036783;28;20017;-66
2024/01/29 06:03:46;;;;;;;61.00;55.75;;;31.70;99.90;;;;;;5036469;28;20394;-66
2024/01/29 06:06:12;;;;;;;53.40;48.67;;;31.70;99.90;;;;;;5036548;28;20060;-66
2024/01/29 06:08:39;;;;;;;50.88;46.17;;;31.80;99.90;;;;;;5036807;28;20078;-67
2024/01/29 06:11:05;;;;;;;43.35;39.63;;;31.80;99.90;;;;;;5036957;28;20029;-67
2024/01/29 06:13:32;;;;;;;54.22;49.88;;;31.90;99.90;;;;;;5036616;28;20029;-66
2024/01/29 06:16:00;;;;;;;71.53;65.05;;;32.00;99.90;;;;;;5036952;28;20108;-66
2024/01/29 06:18:26;;;;;;;57.92;52.88;;;32.10;99.90;;;;;;5036606;28;20017;-67
2024/01/29 06:20:53;;;;;;;66.03;60.28;;;32.20;99.90;;;;;;5036723;28;20100;-67
2024/01/29 06:23:19;;;;;;;49.92;45.75;;;32.30;99.90;;;;;;5036644;28;20394;-69
2024/01/29 06:25:46;;;;;;;47.92;43.42;;;32.40;99.90;;;;;;5036429;28;20021;-66
2024/01/29 06:28:12;;;;;;;47.38;43.30;;;32.40;99.90;;;;;;5036646;28;20068;-67
2024/01/29 06:30:39;;;;;;;47.25;43.15;;;32.50;99.90;;;;;;5036478;28;20037;-66
2024/01/29 06:33:05;;;;;;;60.25;55.35;;;32.50;99.90;;;;;;5036376;28;20079;-66
2024/01/29 06:35:32;;;;;;;71.32;66.25;;;32.60;99.90;;;;;;5036388;28;20053;-67
2024/01/29 06:37:58;;;;;;;73.38;68.18;;;32.50;99.90;;;;;;5036648;28;20020;-66
2024/01/29 06:40:27;;;;;;;45.15;41.60;;;32.30;99.90;;;;;;5036309;28;20026;-67
2024/01/29 06:42:56;;;;;;;53.40;49.53;;;32.00;99.90;;;;;;5050093;28;20412;-67
2024/01/29 06:45:22;;;;;;;72.55;67.40;;;31.70;99.90;;;;;;5039393;28;20450;-67
2024/01/29 06:47:49;;;;;;;100.20;93.20;;;31.60;99.90;;;;;;5036372;28;20031;-67
2024/01/29 06:50:15;;;;;;;87.82;81.45;;;31.40;99.90;;;;;;5036785;28;20572;-65
2024/01/29 06:52:42;;;;;;;93.90;87.22;;;31.20;99.90;;;;;;5043528;28;20029;-66
2024/01/29 06:55:08;;;;;;;103.68;95.97;;;31.00;99.90;;;;;;5046872;28;20478;-65
2024/01/29 06:57:35;;;;;;;109.55;102.00;;;31.00;99.90;;;;;;5046988;28;20097;-66
2024/01/29 07:00:03;;;;;;;100.82;93.82;;;30.90;99.90;;;;;;5045541;28;20022;-66
2024/01/29 07:02:30;;;;;;;100.32;92.85;;;30.90;99.90;;;;;;5046605;28;20017;-65
2024/01/29 07:04:57;;;;;;;88.25;81.85;;;30.80;99.90;;;;;;5046927;28;20071;-65
2024/01/29 07:07:23;;;;;;;93.88;87.38;;;30.80;99.90;;;;;;5044565;28;20095;-65
2024/01/29 07:09:56;;;;;;;80.90;75.15;;;30.90;99.90;;;;;;5046032;28;20025;-66
2024/01/29 07:12:23;;;;;;;76.00;69.80;;;31.00;99.90;;;;;;5047375;28;20064;-66
2024/01/29 07:14:52;;;;;;;82.13;76.18;;;31.00;99.90;;;;;;5045838;28;20009;-66
2024/01/29 07:17:18;;;;;;;81.80;75.97;;;31.10;99.90;;;;;;5056434;28;20105;-67
2024/01/29 07:19:48;;;;;;;80.00;74.07;;;31.20;99.90;;;;;;5056399;28;20024;-70
2024/01/29 07:22:18;;;;;;;78.35;72.47;;;31.30;99.90;;;;;;5055697;28;20024;-67
2024/01/29 07:24:48;;;;;;;96.22;89.13;;;31.30;99.90;;;;;;5055546;28;20029;-67
2024/01/29 07:27:15;;;;;;;94.05;87.38;;;31.40;99.90;;;;;;5055882;28;20074;-68
2024/01/29 07:29:42;;;;;;;96.25;89.10;;;31.50;99.90;;;;;;5055265;28;20397;-68
2024/01/29 07:32:09;;;;;;;103.88;96.47;;;31.60;99.90;;;;;;5056048;28;20028;-69
2024/01/29 07:34:36;;;;;;;100.72;93.50;;;31.70;99.90;;;;;;5056242;28;20489;-69
2024/01/29 07:37:03;;;;;;;102.68;95.60;;;31.70;99.90;;;;;;5056128;28;20060;-70
2024/01/29 07:39:30;;;;;;;90.80;84.07;;;31.80;99.90;;;;;;5056232;28;20052;-69
2024/01/29 07:41:56;;;;;;;107.20;99.40;;;31.90;99.90;;;;;;5055932;28;20032;-69
2024/01/29 07:44:23;;;;;;;110.45;102.45;;;31.90;99.90;;;;;;5055459;28;20025;-69
2024/01/29 07:46:49;;;;;;;105.22;97.63;;;32.00;99.90;;;;;;5055616;28;20024;-69
2024/01/29 07:49:16;;;;;;;95.82;89.43;;;32.20;99.90;;;;;;5049424;28;20049;-69
2024/01/29 07:51:42;;;;;;;107.28;100.13;;;32.20;99.90;;;;;;5039367;28;20032;-69
2024/01/29 07:54:09;;;;;;;105.32;97.88;;;32.30;99.90;;;;;;5045441;28;20024;-69
2024/01/29 07:56:38;;;;;;;102.82;95.80;;;32.40;99.90;;;;;;5046357;28;20100;-69
2024/01/29 07:59:05;;;;;;;103.22;96.25;;;32.50;99.90;;;;;;5044788;28;20433;-69
2024/01/29 08:01:31;;;;;;;101.38;94.18;;;32.60;99.90;;;;;;5044875;28;20047;-69
2024/01/29 08:04:01;;;;;;;100.40;93.40;;;32.50;99.90;;;;;;5045961;28;20111;-70
2024/01/29 08:06:28;;;;;;;107.45;100.13;;;32.50;99.90;;;;;;5044896;28;20065;-70
2024/01/29 08:08:54;;;;;;;116.57;108.57;;;32.40;99.90;;;;;;5043823;28;20078;-70
2024/01/29 08:11:21;;;;;;;117.57;109.65;;;32.30;99.90;;;;;;5045654;28;20041;-69
2024/01/29 08:13:48;;;;;;;120.72;112.88;;;32.30;99.90;;;;;;5042436;28;20100;-69
2024/01/29 08:16:14;;;;;;;115.45;107.72;;;32.30;99.90;;;;;;5035338;28;20458;-68
2024/01/29 08:18:41;;;;;;;111.97;103.90;;;32.30;99.90;;;;;;5035324;28;20049;-69
2024/01/29 08:21:07;;;;;;;114.35;106.00;;;32.30;99.90;;;;;;5035692;28;20083;-68
2024/01/29 08:23:34;;;;;;;111.07;103.72;;;32.40;99.90;;;;;;5035085;28;20040;-69
2024/01/29 08:26:00;;;;;;;100.93;94.05;;;32.40;99.90;;;;;;5035349;28;20021;-68
2024/01/29 08:28:27;;;;;;;97.82;90.75;;;32.40;99.90;;;;;;5035145;28;20029;-69
2024/01/29 08:30:55;;;;;;;103.60;95.78;;;32.40;99.90;;;;;;5034871;28;20033;-69
2024/01/29 08:33:21;;;;;;;87.35;80.50;;;32.30;99.90;;;;;;5034728;28;20033;-68
2024/01/29 08:35:49;;;;;;;83.65;77.20;;;32.20;99.90;;;;;;5052435;28;20499;-69
2024/01/29 08:38:15;;;;;;;82.38;76.40;;;32.20;99.90;;;;;;5054646;28;20028;-69
2024/01/29 08:40:42;;;;;;;94.28;87.00;;;32.20;99.90;;;;;;5038669;28;20439;-67
2024/01/29 08:43:08;;;;;;;98.95;91.53;;;32.20;99.90;;;;;;5034629;28;20017;-67
2024/01/29 08:45:36;;;;;;;86.05;79.68;;;32.30;99.90;;;;;;5034260;28;20032;-67
2024/01/29 08:48:04;;;;;;;80.15;74.22;;;32.30;99.90;;;;;;5044131;28;20063;-66
2024/01/29 08:50:32;;;;;;;97.43;90.13;;;32.20;99.90;;;;;;5055030;28;20103;-66
2024/01/29 08:52:59;;;;;;;91.13;83.90;;;32.20;99.90;;;;;;5054714;28;20481;-67
2024/01/29 08:55:25;;;;;;;85.95;79.50;;;32.20;99.90;;;;;;5054988;28;20017;-67
2024/01/29 08:57:52;;;;;;;106.28;97.85;;;32.20;99.90;;;;;;5054738;28;20029;-68
2024/01/29 09:00:19;;;;;;;92.35;84.68;;;32.20;99.90;;;;;;5047539;28;20455;-69
2024/01/29 09:02:48;;;;;;;104.60;95.40;;;32.10;99.90;;;;;;5038787;28;20032;-69
2024/01/29 09:05:14;;;;;;;111.20;102.10;;;32.10;99.90;;;;;;5039133;28;20033;-70
2024/01/29 09:07:41;;;;;;;127.82;118.13;;;32.10;99.90;;;;;;5046427;28;20123;-68
2024/01/29 09:10:08;;;;;;;122.55;113.72;;;31.80;99.90;;;;;;5043288;28;20151;-68
2024/01/29 09:12:35;;;;;;;108.88;100.20;;;31.60;99.90;;;;;;5033325;28;20037;-67
2024/01/29 09:15:04;;;;;;;101.93;93.95;;;31.30;99.90;;;;;;5051568;28;20374;-66
2024/01/29 09:17:31;;;;;;;76.45;70.20;;;31.10;99.90;;;;;;5052670;28;20009;-69
2024/01/29 09:19:58;;;;;;;78.60;72.63;;;30.80;99.90;;;;;;5052406;28;20035;-69
2024/01/29 09:22:25;;;;;;;68.65;63.30;;;30.60;99.90;;;;;;5052511;28;20021;-69
2024/01/29 09:24:51;;;;;;;73.43;67.40;;;30.40;99.90;;;;;;5052414;28;20049;-69
2024/01/29 09:27:18;;;;;;;70.13;64.47;;;30.30;99.90;;;;;;5047377;28;20061;-70
2024/01/29 09:29:44;;;;;;;138.63;128.57;;;30.20;99.90;;;;;;5041922;28;20071;-69
2024/01/29 09:32:11;;;;;;;134.43;124.80;;;30.30;99.90;;;;;;5045477;28;20022;-68
2024/01/29 09:34:37;;;;;;;168.45;156.68;;;30.30;99.90;;;;;;5043697;28;20029;-69
2024/01/29 09:37:04;;;;;;;190.80;177.57;;;30.30;99.90;;;;;;5046630;28;20027;-67
2024/01/29 09:39:31;;;;;;;157.18;145.88;;;30.30;99.90;;;;;;5048288;28;20029;-66
2024/01/29 09:42:03;;;;;;;168.45;155.77;;;30.40;99.90;;;;;;5048142;28;20083;-68
2024/01/29 09:44:38;;;;;;;182.63;168.30;;;30.40;99.90;;;;;;5038830;28;20523;-68
2024/01/29 09:47:07;;;;;;;183.02;168.70;;;30.40;99.90;;;;;;5042498;28;20021;-68
2024/01/29 09:49:37;;;;;;;254.00;235.32;;;30.40;99.90;;;;;;5042398;28;20082;-69
2024/01/29 09:52:04;;;;;;;209.18;193.93;;;30.40;99.90;;;;;;5042165;28;20471;-67
2024/01/29 09:54:33;;;;;;;183.93;170.55;;;30.30;99.90;;;;;;5047302;28;20040;-68
2024/01/29 09:57:00;;;;;;;127.38;118.15;;;30.20;99.90;;;;;;5039664;28;20029;-68
2024/01/29 09:59:27;;;;;;;188.95;175.55;;;30.30;99.90;;;;;;5052266;28;20104;-66
2024/01/29 10:01:53;;;;;;;183.27;169.85;;;30.30;99.90;;;;;;5052514;28;20017;-67
2024/01/29 10:04:21;;;;;;;128.27;119.05;;;30.30;99.90;;;;;;5052123;28;20013;-67
2024/01/29 10:06:48;;;;;;;107.53;99.90;;;30.20;99.90;;;;;;5047130;28;20044;-67
2024/01/29 10:09:15;;;;;;;137.95;128.00;;;30.20;99.90;;;;;;5041805;28;20025;-69
2024/01/29 10:11:43;;;;;;;134.15;124.38;;;30.20;99.90;;;;;;5042755;28;20041;-67
2024/01/29 10:14:10;;;;;;;172.85;159.95;;;30.20;99.90;;;;;;5045052;28;20038;-67
2024/01/29 10:16:36;;;;;;;89.07;82.40;;;30.10;99.90;;;;;;5046213;28;20013;-67
2024/01/29 10:19:03;;;;;;;122.78;113.93;;;30.10;99.90;;;;;;5042844;28;20017;-67
2024/01/29 10:21:38;;;;;;;194.60;179.05;;;30.00;99.90;;;;;;5042908;28;20025;-67
2024/01/29 10:24:05;;;;;;;202.32;185.52;;;30.10;99.90;;;;;;5041489;28;20100;-68
2024/01/29 10:26:31;;;;;;;146.88;136.32;;;30.10;99.90;;;;;;5044698;28;20413;-68
2024/01/29 10:29:02;;;;;;;161.68;150.55;;;30.10;99.90;;;;;;5052369;28;20436;-67
2024/01/29 10:31:31;;;;;;;158.85;148.13;;;30.10;99.90;;;;;;5048780;28;20025;-67
2024/01/29 10:33:58;;;;;;;174.80;162.85;;;30.10;99.90;;;;;;5045139;28;20419;-68
2024/01/29 10:36:25;;;;;;;106.55;99.32;;;30.10;99.90;;;;;;5045337;28;20022;-67
2024/01/29 10:38:53;;;;;;;184.68;171.18;;;30.10;99.90;;;;;;5046189;28;20020;-68
2024/01/29 10:41:21;;;;;;;206.93;188.07;;;30.10;99.90;;;;;;5047014;28;20021;-71
2024/01/29 10:43:49;;;;;;;125.82;116.10;;;30.10;99.90;;;;;;5045549;28;20014;-67
2024/01/29 10:46:25;;;;;;;133.95;123.03;;;30.10;99.90;;;;;;5045733;28;20087;-67
2024/01/29 10:48:53;;;;;;;234.85;217.98;;;30.10;99.90;;;;;;5046006;28;20026;-67
2024/01/29 10:51:21;;;;;;;264.40;244.90;;;30.10;99.90;;;;;;5045944;28;20077;-67
2024/01/29 10:53:49;;;;;;;192.43;179.25;;;30.10;99.90;;;;;;5049537;28;20017;-69
2024/01/29 10:56:17;;;;;;;154.40;143.80;;;30.10;99.90;;;;;;5046605;28;20018;-66
2024/01/29 10:58:45;;;;;;;189.70;176.07;;;30.00;99.90;;;;;;5042692;28;20025;-66
2024/01/29 11:01:11;;;;;;;233.23;216.40;;;30.00;99.90;;;;;;5042361;28;20131;-67
2024/01/29 11:03:39;;;;;;;263.48;244.55;;;30.00;99.90;;;;;;5043434;28;20014;-67
2024/01/29 11:06:25;;;;;;;280.40;258.95;;;30.00;99.90;;;;;;5049657;28;20086;-69
2024/01/29 11:09:04;;;;;;;253.52;234.50;;;30.00;99.90;;;;;;4949210;29;20342;-66
2024/01/29 11:11:31;;;;;;;280.52;259.30;;;30.00;99.90;;;;;;4949307;29;20042;-69
2024/01/29 11:13:58;;;;;;;290.58;269.17;;;30.00;99.90;;;;;;4948274;29;20028;-65
2024/01/29 11:16:25;;;;;;;278.50;256.55;;;29.90;99.90;;;;;;4943619;29;20034;-67
2024/01/29 11:18:52;;;;;;;284.17;262.10;;;29.90;99.90;;;;;;4947109;29;20038;-66
2024/01/29 11:21:24;;;;;;;224.68;207.45;;;29.90;99.90;;;;;;4944674;29;20034;-66
2024/01/29 11:23:54;;;;;;;291.10;268.42;;;29.90;99.90;;;;;;4948193;28;20122;-66
2024/01/29 11:26:23;;;;;;;291.67;269.17;;;29.80;99.90;;;;;;4945541;29;20074;-67
2024/01/29 11:29:03;;;;;;;291.17;268.80;;;29.80;99.90;;;;;;4939748;29;20128;-66
2024/01/29 11:31:51;;;;;;;288.10;265.98;;;29.80;99.90;;;;;;4949916;28;20066;-67
2024/01/29 11:34:27;;;;;;;300.70;276.45;;;29.80;99.90;;;;;;4950012;29;20039;-67
2024/01/29 11:36:54;;;;;;;296.17;273.40;;;29.80;99.90;;;;;;4950061;29;20019;-68
2024/01/29 11:39:24;;;;;;;282.33;260.55;;;29.80;99.90;;;;;;4993889;28;21046;-67
2024/01/29 11:41:52;;;;;;;194.88;180.88;;;29.80;99.90;;;;;;5049815;28;20100;-64
2024/01/29 11:44:21;;;;;;;291.65;268.95;;;29.80;99.90;;;;;;5049714;28;20060;-67
2024/01/29 11:46:49;;;;;;;292.55;269.13;;;29.80;99.90;;;;;;5048627;28;20104;-67
2024/01/29 11:49:25;;;;;;;273.50;252.95;;;29.80;99.90;;;;;;5049153;28;20017;-67
2024/01/29 11:51:54;;;;;;;292.95;270.08;;;29.80;99.90;;;;;;5039409;28;20014;-68
2024/01/29 11:54:22;;;;;;;274.95;253.68;;;29.80;99.90;;;;;;5039232;28;20033;-67
2024/01/29 11:56:49;;;;;;;287.27;265.02;;;29.80;99.90;;;;;;5048222;28;20104;-66
2024/01/29 11:59:15;;;;;;;240.13;221.48;;;29.80;99.90;;;;;;5047908;28;20044;-69
2024/01/29 12:01:43;;;;;;;277.40;256.15;;;29.80;99.90;;;;;;5045876;28;20178;-66
2024/01/29 12:04:11;;;;;;;316.00;290.55;;;29.70;99.90;;;;;;5043468;28;20432;-66
2024/01/29 12:06:38;;;;;;;296.77;273.23;;;29.70;99.90;;;;;;5046804;28;20049;-67
2024/01/29 12:09:09;;;;;;;260.00;239.68;;;29.70;99.90;;;;;;5047332;28;20117;-66
2024/01/29 12:11:36;;;;;;;286.27;263.98;;;29.70;99.90;;;;;;5044228;28;20424;-65
2024/01/29 12:14:02;;;;;;;270.98;250.18;;;29.70;99.90;;;;;;5042499;28;20028;-65
2024/01/29 12:16:29;;;;;;;259.05;239.20;;;29.60;99.90;;;;;;5042944;28;20470;-65